createdAt,value
2019-05-13T04:07:52.597Z,5.90
2019-05-13T04:10:23.441Z,5.90
2019-05-13T04:29:52.496Z,5.50
2019-05-13T04:38:13.313Z,5.60
2019-05-13T04:41:13.945Z,5.70
2019-05-13T04:50:43.171Z,6.10
2019-05-13T04:53:33.031Z,6.10
2019-05-13T05:04:21.428Z,6.30
2019-05-13T05:17:17.159Z,6.50
2019-05-13T05:20:32.181Z,6.70
2019-05-13T05:40:35.174Z,7.00
2019-05-13T05:46:14.600Z,7.10
2019-05-13T05:48:50.127Z,7.20
2019-05-13T05:51:22.216Z,7.30
2019-05-13T05:54:02.487Z,7.50
2019-05-13T05:56:34.928Z,7.40
2019-05-13T05:59:04.458Z,7.60
2019-05-13T06:01:37.771Z,7.70
2019-05-13T06:04:07.977Z,7.70
2019-05-13T06:06:41.373Z,7.80
2019-05-13T06:09:12.076Z,7.90
2019-05-13T06:11:41.789Z,7.90
2019-05-13T06:14:11.376Z,8.00
2019-05-13T06:16:42.563Z,8.00
2019-05-13T06:19:12.229Z,8.20
2019-05-13T06:21:42.063Z,8.30
2019-05-13T06:24:11.817Z,8.40
2019-05-13T06:26:41.953Z,8.40
2019-05-13T06:29:11.786Z,8.50
2019-05-13T06:31:41.894Z,8.50
2019-05-13T06:34:12.640Z,8.60
2019-05-13T06:36:41.962Z,8.60
2019-05-13T06:39:12.368Z,8.60
2019-05-13T06:41:44.570Z,8.80
2019-05-13T06:44:13.824Z,8.80
2019-05-13T06:46:42.789Z,8.80
2019-05-13T06:49:14.184Z,9.00
2019-05-13T06:51:46.348Z,9.10
2019-05-13T06:54:15.633Z,9.10
2019-05-13T06:56:45.627Z,9.10
2019-05-13T06:59:15.482Z,9.10
2019-05-13T07:01:44.765Z,9.20
2019-05-13T07:04:14.025Z,9.20
2019-05-13T07:07:08.913Z,9.20
2019-05-13T07:09:32.417Z,9.10
2019-05-13T07:12:02.502Z,9.20
2019-05-13T07:15:31.524Z,9.10
2019-05-13T07:18:32.375Z,9.10
2019-05-13T07:21:07.134Z,9.20
2019-05-13T07:23:42.121Z,9.30
2019-05-13T07:26:35.742Z,9.40
2019-05-13T07:29:29.099Z,9.50
2019-05-13T07:31:58.247Z,9.60
2019-05-13T07:34:28.234Z,9.70
2019-05-13T07:36:57.941Z,9.80
2019-05-13T07:39:27.162Z,9.70
2019-05-13T07:41:56.422Z,9.70
2019-05-13T07:44:25.255Z,9.80
2019-05-13T07:46:54.635Z,10.00
2019-05-13T07:49:26.685Z,10.00
2019-05-13T07:51:55.968Z,10.10
2019-05-13T07:54:24.913Z,10.20
2019-05-13T07:56:54.049Z,10.20
2019-05-13T07:59:23.682Z,10.30
2019-05-13T08:01:53.561Z,10.50
2019-05-13T08:04:26.257Z,10.50
2019-05-13T08:06:53.445Z,10.70
2019-05-13T08:09:23.051Z,10.80
2019-05-13T08:12:05.275Z,10.60
2019-05-13T08:14:32.488Z,10.60
2019-05-13T08:17:02.716Z,10.80
2019-05-13T08:19:32.828Z,10.90
2019-05-13T08:22:02.431Z,10.80
2019-05-13T08:24:35.587Z,11.00
2019-05-13T08:27:04.901Z,11.00
2019-05-13T08:29:37.669Z,11.10
2019-05-13T08:32:06.764Z,11.20
2019-05-13T08:34:41.530Z,11.30
2019-05-13T08:37:11.394Z,11.30
2019-05-13T08:39:41.457Z,11.40
2019-05-13T08:42:16.063Z,11.30
2019-05-13T08:44:44.874Z,11.30
2019-05-13T08:47:15.727Z,11.40
2019-05-13T08:49:44.797Z,11.50
2019-05-13T08:52:14.105Z,11.30
2019-05-13T08:54:46.700Z,11.40
2019-05-13T08:57:16.273Z,11.60
2019-05-13T08:59:47.306Z,11.60
2019-05-13T09:02:16.725Z,11.50
2019-05-13T09:08:12.794Z,11.80
2019-05-13T09:10:41.955Z,11.80
2019-05-13T09:13:12.081Z,11.80
2019-05-13T09:15:42.219Z,11.90
2019-05-13T09:18:55.776Z,11.90
2019-05-13T09:21:24.925Z,11.90
2019-05-13T09:23:56.272Z,12.10
2019-05-13T09:26:31.748Z,12.20
2019-05-13T09:29:01.591Z,12.20
2019-05-13T09:31:32.929Z,12.40
2019-05-13T09:34:02.223Z,12.40
2019-05-13T09:37:07.682Z,12.30
2019-05-13T09:39:51.918Z,12.40
2019-05-13T09:42:24.021Z,12.30
2019-05-13T09:46:44.564Z,12.40
2019-05-13T09:47:49.222Z,12.40
2019-05-13T09:50:28.569Z,12.30
2019-05-13T09:52:51.222Z,12.30
2019-05-13T09:55:28.828Z,12.30
2019-05-13T09:57:55.710Z,12.50
2019-05-13T10:00:25.033Z,12.70
2019-05-13T10:02:54.484Z,12.80
2019-05-13T10:05:23.385Z,12.60
2019-05-13T10:07:52.887Z,12.60
2019-05-13T10:10:22.431Z,13.00
2019-05-13T10:13:07.794Z,13.00
2019-05-13T10:15:22.624Z,13.00
2019-05-13T10:17:54.899Z,13.00
2019-05-13T10:20:42.726Z,13.10
2019-05-13T10:23:12.585Z,13.50
2019-05-13T10:25:43.411Z,13.40
2019-05-13T10:28:13.356Z,13.60
2019-05-13T10:30:43.808Z,13.70
2019-05-13T10:33:14.019Z,13.80
2019-05-13T10:35:45.396Z,13.60
2019-05-13T10:38:14.804Z,13.50
2019-05-13T10:40:45.774Z,13.40
2019-05-13T10:43:29.464Z,13.50
2019-05-13T10:45:47.193Z,13.70
2019-05-13T10:48:16.753Z,13.80
2019-05-13T10:50:46.649Z,13.80
2019-05-13T10:53:16.929Z,14.00
2019-05-13T10:55:46.108Z,14.20
2019-05-13T10:58:15.386Z,14.50
2019-05-13T11:00:47.834Z,14.60
2019-05-13T11:03:17.136Z,14.30
2019-05-13T11:05:52.621Z,14.60
2019-05-13T11:08:22.503Z,14.70
2019-05-13T11:10:54.938Z,14.30
2019-05-13T11:13:25.830Z,14.20
2019-05-13T11:15:58.679Z,14.20
2019-05-13T11:18:28.434Z,14.70
2019-05-13T11:21:02.221Z,14.90
2019-05-13T11:23:33.643Z,14.70
2019-05-13T11:26:03.761Z,14.90
2019-05-13T11:28:33.323Z,15.10
2019-05-13T11:31:06.254Z,15.00
2019-05-13T11:33:35.674Z,15.00
2019-05-13T11:36:04.809Z,15.20
2019-05-13T11:38:36.887Z,15.30
2019-05-13T11:41:06.185Z,15.60
2019-05-13T11:43:35.241Z,16.00
2019-05-13T11:46:07.297Z,16.60
2019-05-13T11:48:42.604Z,16.90
2019-05-13T11:51:07.066Z,17.40
2019-05-13T11:53:37.615Z,17.50
2019-05-13T11:56:06.840Z,18.40
2019-05-13T11:58:36.306Z,18.90
2019-05-13T12:01:08.575Z,20.20
2019-05-13T12:03:37.473Z,20.00
2019-05-13T12:06:09.929Z,20.80
2019-05-13T12:08:38.918Z,21.30
2019-05-13T12:11:13.976Z,21.40
2019-05-13T12:13:42.607Z,22.00
2019-05-13T12:16:22.678Z,22.00
2019-05-13T12:18:53.076Z,22.00
2019-05-13T12:21:22.141Z,21.70
2019-05-13T12:23:52.667Z,21.90
2019-05-13T12:26:23.782Z,22.90
2019-05-13T12:28:53.871Z,23.40
2019-05-13T12:31:25.981Z,23.40
2019-05-13T12:33:57.864Z,23.70
2019-05-13T12:36:26.720Z,23.40
2019-05-13T12:38:55.550Z,23.50
2019-05-13T12:41:24.443Z,23.20
2019-05-13T12:43:53.985Z,23.60
2019-05-13T12:46:24.851Z,23.30
2019-05-13T12:48:54.137Z,22.60
2019-05-13T12:51:23.107Z,23.60
2019-05-13T12:53:52.966Z,23.20
2019-05-13T12:56:23.508Z,23.00
2019-05-13T12:58:52.834Z,24.10
2019-05-13T13:01:23.958Z,23.50
2019-05-13T13:03:52.608Z,22.30
2019-05-13T13:06:32.464Z,22.60
2019-05-13T13:08:58.500Z,23.30
2019-05-13T13:11:32.362Z,24.00
2019-05-13T13:14:05.765Z,24.40
2019-05-13T13:16:35.357Z,24.00
2019-05-13T13:19:05.338Z,23.50
2019-05-13T13:21:38.727Z,22.50
2019-05-13T13:24:07.665Z,21.40
2019-05-13T13:26:36.610Z,21.00
2019-05-13T13:29:05.569Z,20.80
2019-05-13T13:31:34.769Z,21.10
2019-05-13T13:34:12.045Z,20.40
2019-05-13T13:36:34.442Z,20.50
2019-05-13T13:39:07.117Z,20.40
2019-05-13T13:41:38.876Z,20.40
2019-05-13T13:44:07.860Z,19.70
2019-05-13T13:46:42.862Z,19.80
2019-05-13T13:49:07.911Z,20.40
2019-05-13T13:51:36.807Z,20.80
2019-05-13T13:54:05.802Z,20.50
2019-05-13T13:56:35.166Z,20.90
2019-05-13T13:59:06.764Z,21.30
2019-05-13T14:01:35.745Z,21.20
2019-05-13T14:04:04.774Z,20.50
2019-05-13T14:07:22.636Z,20.10
2019-05-13T14:09:06.363Z,20.60
2019-05-13T14:11:35.286Z,20.70
2019-05-13T14:14:04.267Z,20.80
2019-05-13T14:16:35.176Z,20.60
2019-05-13T14:19:04.166Z,21.00
2019-05-13T14:21:33.092Z,21.10
2019-05-13T14:24:02.779Z,20.50
2019-05-13T14:26:33.021Z,20.10
2019-05-13T14:29:02.815Z,19.70
2019-05-13T14:31:32.487Z,20.10
2019-05-13T14:34:04.459Z,19.20
2019-05-13T14:36:33.634Z,19.40
2019-05-13T14:39:03.074Z,19.20
2019-05-13T14:41:31.958Z,19.40
2019-05-13T14:44:03.930Z,19.80
2019-05-13T14:46:46.687Z,19.90
2019-05-13T14:49:06.549Z,19.80
2019-05-13T14:51:38.435Z,19.70
2019-05-13T14:54:07.532Z,19.70
2019-05-13T14:59:11.666Z,20.00
2019-05-13T15:01:41.435Z,19.80
2019-05-13T15:04:16.583Z,19.70
2019-05-13T15:06:48.240Z,20.10
2019-05-13T15:09:20.151Z,20.50
2019-05-13T15:11:53.354Z,20.50
2019-05-13T15:14:22.371Z,20.60
2019-05-13T15:17:04.137Z,20.10
2019-05-13T15:19:31.768Z,19.70
2019-05-13T15:22:00.932Z,19.40
2019-05-13T15:24:32.345Z,19.10
2019-05-13T15:27:03.007Z,18.90
2019-05-13T15:29:36.242Z,19.80
2019-05-13T15:32:09.763Z,20.20
2019-05-13T15:34:35.707Z,20.00
2019-05-13T15:37:04.894Z,20.20
2019-05-13T15:39:33.828Z,19.60
2019-05-13T15:42:12.115Z,18.90
2019-05-13T15:44:41.285Z,19.60
2019-05-13T15:47:22.835Z,19.70
2019-05-13T15:49:43.812Z,19.90
2019-05-13T15:52:15.712Z,19.80
2019-05-13T15:54:44.606Z,20.10
2019-05-13T15:57:16.742Z,19.80
2019-05-13T15:59:45.633Z,19.90
2019-05-13T16:02:15.178Z,20.00
2019-05-13T16:04:53.000Z,20.50
2019-05-13T16:07:18.271Z,20.30
2019-05-13T16:09:52.465Z,19.90
2019-05-13T16:12:21.392Z,19.60
2019-05-13T16:14:52.216Z,19.30
2019-05-13T16:17:26.145Z,19.30
2019-05-13T16:19:53.456Z,18.90
2019-05-13T16:22:48.292Z,19.60
2019-05-13T16:25:17.693Z,19.80
2019-05-13T16:27:52.049Z,19.70
2019-05-13T16:30:27.071Z,18.70
2019-05-13T16:33:02.815Z,18.00
2019-05-13T16:35:36.033Z,17.80
2019-05-13T16:38:05.190Z,18.00
2019-05-13T16:40:36.670Z,18.70
2019-05-13T16:43:12.607Z,19.00
2019-05-13T16:45:42.324Z,18.80
2019-05-13T16:48:13.980Z,19.70
2019-05-13T16:50:42.987Z,19.00
2019-05-13T16:53:11.899Z,19.30
2019-05-13T16:55:43.652Z,19.80
2019-05-13T16:58:12.717Z,19.40
2019-05-13T17:00:42.453Z,18.90
2019-05-13T17:03:11.643Z,19.30
2019-05-13T17:05:43.466Z,19.00
2019-05-13T17:08:15.140Z,19.60
2019-05-13T17:10:47.072Z,18.80
2019-05-13T17:13:16.033Z,19.20
2019-05-13T17:15:44.962Z,19.40
2019-05-13T17:18:15.348Z,19.00
2019-05-13T17:20:45.056Z,18.70
2019-05-13T17:23:17.093Z,18.40
2019-05-13T17:25:51.943Z,18.60
2019-05-13T17:28:25.654Z,18.80
2019-05-13T17:30:54.658Z,19.30
2019-05-13T17:33:27.091Z,19.70
2019-05-13T17:35:56.235Z,20.00
2019-05-13T17:38:28.085Z,20.20
2019-05-13T17:41:04.075Z,20.20
2019-05-13T17:43:43.810Z,19.40
2019-05-13T17:46:15.797Z,19.80
2019-05-13T17:48:48.304Z,19.60
2019-05-13T17:51:22.506Z,19.90
2019-05-13T17:53:52.214Z,20.70
2019-05-13T17:56:21.799Z,20.50
2019-05-13T17:58:53.852Z,20.50
2019-05-13T18:01:22.950Z,20.70
2019-05-13T18:03:54.841Z,20.60
2019-05-13T18:06:24.135Z,20.00
2019-05-13T18:08:56.225Z,20.30
2019-05-13T18:11:36.575Z,20.50
2019-05-13T18:14:06.178Z,20.80
2019-05-13T18:16:35.924Z,20.00
2019-05-13T18:19:05.398Z,19.30
2019-05-13T18:21:34.493Z,18.40
2019-05-13T18:24:04.405Z,18.30
2019-05-13T18:26:34.017Z,17.40
2019-05-13T18:29:05.322Z,16.40
2019-05-13T18:31:34.870Z,15.50
2019-05-13T18:34:04.205Z,15.10
2019-05-13T18:36:36.060Z,14.90
2019-05-13T18:39:08.636Z,14.40
2019-05-13T18:41:45.321Z,14.00
2019-05-13T18:44:18.994Z,13.90
2019-05-13T18:46:48.165Z,13.70
2019-05-13T18:49:21.071Z,13.60
2019-05-13T18:51:56.357Z,13.50
2019-05-13T18:54:27.851Z,13.40
2019-05-13T18:56:57.211Z,13.30
2019-05-13T18:59:27.448Z,13.20
2019-05-13T19:01:57.554Z,13.10
2019-05-13T19:04:27.177Z,12.90
2019-05-13T19:06:56.974Z,12.50
2019-05-13T19:09:26.064Z,12.40
2019-05-13T19:12:01.406Z,12.30
2019-05-13T19:14:34.467Z,12.10
2019-05-13T19:17:07.763Z,12.00
2019-05-13T19:19:43.071Z,12.00
2019-05-13T19:22:16.645Z,11.90
2019-05-13T19:24:45.864Z,11.60
2019-05-13T19:27:21.585Z,11.50
2019-05-13T19:29:52.345Z,11.50
2019-05-13T19:32:22.216Z,11.40
2019-05-13T19:34:54.911Z,11.10
2019-05-13T19:37:27.869Z,11.10
2019-05-13T19:39:58.441Z,10.90
2019-05-13T19:42:31.216Z,10.80
2019-05-13T19:45:01.786Z,10.80
2019-05-13T19:47:33.868Z,10.60
2019-05-13T19:50:02.962Z,10.70
2019-05-13T19:52:51.808Z,10.70
2019-05-13T19:55:12.070Z,10.60
2019-05-13T19:57:42.464Z,10.60
2019-05-13T20:03:39.079Z,10.40
2019-05-13T20:06:14.065Z,10.40
2019-05-13T20:09:03.553Z,10.40
2019-05-13T20:11:45.728Z,10.50
2019-05-13T20:14:18.179Z,10.40
2019-05-13T20:16:58.476Z,10.50
2019-05-13T20:19:50.255Z,10.30
2019-05-13T20:22:14.450Z,10.30
2019-05-13T20:25:03.105Z,10.40
2019-05-13T20:28:03.581Z,10.40
2019-05-13T20:31:01.840Z,10.30
2019-05-13T20:34:35.111Z,10.20
2019-05-13T20:36:26.740Z,10.20
2019-05-13T20:39:18.652Z,10.10
2019-05-13T20:41:50.094Z,10.00
2019-05-13T20:44:28.520Z,9.90
2019-05-13T20:47:06.039Z,9.90
2019-05-13T20:49:41.542Z,9.90
2019-05-13T20:52:22.243Z,9.90
2019-05-13T20:55:23.292Z,10.00
2019-05-13T20:57:57.219Z,9.90
2019-05-13T21:00:33.798Z,10.00
2019-05-13T21:03:11.544Z,9.90
2019-05-13T21:05:59.673Z,10.00
2019-05-13T21:09:18.057Z,9.80
2019-05-13T21:11:04.210Z,9.80
2019-05-13T21:13:34.657Z,9.80
2019-05-13T21:16:44.017Z,10.00
2019-05-13T21:19:17.187Z,9.90
2019-05-13T21:21:58.909Z,9.80
2019-05-13T21:24:31.910Z,9.80
2019-05-13T21:27:05.129Z,9.60
2019-05-13T21:29:46.731Z,9.70
2019-05-13T21:32:21.391Z,9.90
2019-05-13T21:34:57.523Z,9.90
2019-05-13T21:37:30.144Z,9.90
2019-05-13T21:40:00.022Z,9.90
2019-05-13T21:42:32.151Z,10.10
2019-05-13T21:45:01.847Z,9.90
2019-05-13T21:47:34.233Z,10.00
2019-05-13T21:50:06.706Z,9.90
2019-05-13T21:52:53.706Z,9.90
2019-05-13T21:55:24.948Z,9.90
2019-05-13T21:57:54.365Z,9.90
2019-05-13T22:00:27.875Z,9.80
2019-05-13T22:02:57.764Z,9.80
2019-05-13T22:05:31.707Z,9.70
2019-05-13T22:10:55.064Z,9.80
2019-05-13T22:13:24.138Z,9.70
2019-05-13T22:15:54.067Z,9.70
2019-05-13T22:18:24.494Z,9.70
2019-05-13T22:20:54.135Z,9.80
2019-05-13T22:23:28.803Z,9.70
2019-05-13T22:26:04.167Z,9.80
2019-05-13T22:28:36.372Z,9.80
2019-05-13T22:31:11.503Z,9.80
2019-05-13T22:36:15.609Z,9.80
2019-05-13T22:38:51.782Z,9.70
2019-05-13T22:41:25.172Z,9.70
2019-05-13T22:48:02.690Z,9.70
2019-05-13T22:50:49.270Z,9.70
2019-05-13T22:53:21.132Z,9.70
2019-05-13T22:57:12.176Z,9.60
2019-05-13T22:58:47.101Z,9.60
2019-05-13T23:01:25.925Z,9.60
2019-05-13T23:04:02.163Z,9.50
2019-05-13T23:06:35.688Z,9.50
2019-05-13T23:09:08.450Z,9.50
2019-05-13T23:11:38.095Z,9.50
2019-05-13T23:14:15.219Z,9.40
2019-05-13T23:16:49.819Z,9.40
2019-05-13T23:22:21.056Z,9.40
2019-05-13T23:24:55.012Z,9.50
2019-05-13T23:27:32.504Z,9.50
2019-05-13T23:30:08.415Z,9.50
2019-05-13T23:32:38.152Z,9.40
2019-05-13T23:35:33.783Z,9.40
2019-05-13T23:38:31.724Z,9.40
2019-05-13T23:44:41.207Z,9.30
2019-05-13T23:47:31.148Z,9.30
2019-05-13T23:53:18.510Z,9.10
2019-05-13T23:55:57.744Z,9.10
2019-05-13T23:58:32.636Z,9.10
